sensor_id;sensor_type;location;lat;lon;timestamp;pressure;altitude;pressure_sealevel;temperature;humidity
71716;BME280;59568;52.128;5.434;2023-02-17T00:00:56;102048.50;;;8.96;100.00
71716;BME280;59568;52.128;5.434;2023-02-17T00:03:23;102045.88;;;8.96;100.00
71716;BME280;59568;52.128;5.434;2023-02-17T00:05:50;102044.28;;;8.95;100.00
71716;BME280;59568;52.128;5.434;2023-02-17T00:08:17;102037.28;;;8.95;100.00
71716;BME280;59568;52.128;5.434;2023-02-17T00:10:43;102040.66;;;8.96;100.00
71716;BME280;59568;52.128;5.434;2023-02-17T00:13:10;102040.44;;;8.97;100.00
71716;BME280;59568;52.128;5.434;2023-02-17T00:15:37;102040.44;;;8.97;100.00
71716;BME280;59568;52.128;5.434;2023-02-17T00:18:07;102038.84;;;8.96;100.00
71716;BME280;59568;52.128;5.434;2023-02-17T00:20:33;102030.78;;;8.98;100.00
71716;BME280;59568;52.128;5.434;2023-02-17T00:23:00;102028.94;;;8.98;100.00
71716;BME280;59568;52.128;5.434;2023-02-17T00:25:26;102030.78;;;8.98;100.00
71716;BME280;59568;52.128;5.434;2023-02-17T00:27:53;102024.53;;;8.99;100.00
71716;BME280;59568;52.128;5.434;2023-02-17T00:30:19;102031.56;;;8.98;100.00
71716;BME280;59568;52.128;5.434;2023-02-17T00:32:46;102028.16;;;8.98;100.00
71716;BME280;59568;52.128;5.434;2023-02-17T00:35:13;102024.78;;;8.97;100.00
71716;BME280;59568;52.128;5.434;2023-02-17T00:37:39;102022.97;;;8.98;100.00
71716;BME280;59568;52.128;5.434;2023-02-17T00:40:06;102024.53;;;8.99;100.00
71716;BME280;59568;52.128;5.434;2023-02-17T00:42:37;102025.56;;;8.98;100.00
71716;BME280;59568;52.128;5.434;2023-02-17T00:45:04;102023.50;;;9.00;100.00
71716;BME280;59568;52.128;5.434;2023-02-17T00:47:31;102018.53;;;8.98;100.00
71716;BME280;59568;52.128;5.434;2023-02-17T00:49:58;102020.34;;;8.98;100.00
71716;BME280;59568;52.128;5.434;2023-02-17T00:52:24;102018.53;;;8.98;100.00
71716;BME280;59568;52.128;5.434;2023-02-17T00:54:50;102019.31;;;8.99;100.00
71716;BME280;59568;52.128;5.434;2023-02-17T00:57:17;102012.28;;;8.99;100.00
71716;BME280;59568;52.128;5.434;2023-02-17T00:59:44;102017.75;;;8.98;100.00
71716;BME280;59568;52.128;5.434;2023-02-17T01:02:10;102007.56;;;8.96;100.00
71716;BME280;59568;52.128;5.434;2023-02-17T01:04:37;102022.41;;;8.96;100.00
71716;BME280;59568;52.128;5.434;2023-02-17T01:07:03;102019.03;;;8.95;100.00
71716;BME280;59568;52.128;5.434;2023-02-17T01:09:30;102006.22;;;8.94;100.00
71716;BME280;59568;52.128;5.434;2023-02-17T01:11:56;102019.25;;;8.94;100.00
71716;BME280;59568;52.128;5.434;2023-02-17T01:14:23;102002.03;;;8.93;100.00
71716;BME280;59568;52.128;5.434;2023-02-17T01:16:51;102006.22;;;8.94;100.00
71716;BME280;59568;52.128;5.434;2023-02-17T01:19:18;102016.66;;;8.94;100.00
71716;BME280;59568;52.128;5.434;2023-02-17T01:21:45;102021.09;;;8.93;100.00
71716;BME280;59568;52.128;5.434;2023-02-17T01:24:11;102015.31;;;8.91;100.00
71716;BME280;59568;52.128;5.434;2023-02-17T01:26:40;102015.81;;;8.88;100.00
71716;BME280;59568;52.128;5.434;2023-02-17T01:29:07;102025.47;;;8.88;100.00
71716;BME280;59568;52.128;5.434;2023-02-17T01:31:34;102022.31;;;8.86;100.00
71716;BME280;59568;52.128;5.434;2023-02-17T01:34:02;102015.50;;;8.85;100.00
71716;BME280;59568;52.128;5.434;2023-02-17T01:36:29;102010.53;;;8.83;100.00
71716;BME280;59568;52.128;5.434;2023-02-17T01:38:56;102028.00;;;8.83;100.00
71716;BME280;59568;52.128;5.434;2023-02-17T01:41:25;102026.44;;;8.82;100.00
71716;BME280;59568;52.128;5.434;2023-02-17T01:44:08;102024.84;;;8.80;100.00
71716;BME280;59568;52.128;5.434;2023-02-17T01:46:35;102032.34;;;8.77;100.00
71716;BME280;59568;52.128;5.434;2023-02-17T01:49:23;102026.31;;;8.71;100.00
71716;BME280;59568;52.128;5.434;2023-02-17T01:52:16;102017.97;;;8.69;100.00
71716;BME280;59568;52.128;5.434;2023-02-17T01:54:48;102013.75;;;8.68;100.00
71716;BME280;59568;52.128;5.434;2023-02-17T01:57:17;102027.03;;;8.67;100.00
71716;BME280;59568;52.128;5.434;2023-02-17T02:00:05;102019.94;;;8.62;100.00
71716;BME280;59568;52.128;5.434;2023-02-17T02:02:32;102015.75;;;8.61;100.00
71716;BME280;59568;52.128;5.434;2023-02-17T02:05:02;102019.41;;;8.60;100.00
71716;BME280;59568;52.128;5.434;2023-02-17T02:07:35;102007.41;;;8.59;100.00
71716;BME280;59568;52.128;5.434;2023-02-17T02:10:07;102005.06;;;8.57;100.00
71716;BME280;59568;52.128;5.434;2023-02-17T02:12:39;101990.97;;;8.58;100.00
71716;BME280;59568;52.128;5.434;2023-02-17T02:15:09;101986.28;;;8.55;100.00
71716;BME280;59568;52.128;5.434;2023-02-17T02:18:15;101981.84;;;8.56;100.00
71716;BME280;59568;52.128;5.434;2023-02-17T02:24:42;101969.06;;;8.54;100.00
71716;BME280;59568;52.128;5.434;2023-02-17T02:33:10;101946.56;;;8.48;100.00
71716;BME280;59568;52.128;5.434;2023-02-17T02:38:40;101965.59;;;8.49;100.00
71716;BME280;59568;52.128;5.434;2023-02-17T02:41:15;101950.78;;;8.49;100.00
71716;BME280;59568;52.128;5.434;2023-02-17T02:43:52;101943.19;;;8.48;100.00
71716;BME280;59568;52.128;5.434;2023-02-17T02:46:18;101946.28;;;8.45;100.00
71716;BME280;59568;52.128;5.434;2023-02-17T02:48:46;101942.09;;;8.44;100.00
71716;BME280;59568;52.128;5.434;2023-02-17T02:57:21;101939.16;;;8.40;100.00
71716;BME280;59568;52.128;5.434;2023-02-17T03:00:10;101951.41;;;8.39;100.00
71716;BME280;59568;52.128;5.434;2023-02-17T03:03:25;101948.25;;;8.37;100.00
71716;BME280;59568;52.128;5.434;2023-02-17T03:09:41;101933.66;;;8.36;100.00
71716;BME280;59568;52.128;5.434;2023-02-17T03:12:08;101939.91;;;8.35;100.00
71716;BME280;59568;52.128;5.434;2023-02-17T03:14:36;101942.25;;;8.37;100.00
71716;BME280;59568;52.128;5.434;2023-02-17T03:17:03;101936.50;;;8.35;100.00
71716;BME280;59568;52.128;5.434;2023-02-17T03:19:30;101939.91;;;8.35;100.00
71716;BME280;59568;52.128;5.434;2023-02-17T03:22:04;101948.25;;;8.37;100.00
71716;BME280;59568;52.128;5.434;2023-02-17T03:24:33;101931.03;;;8.36;100.00
71716;BME280;59568;52.128;5.434;2023-02-17T03:27:00;101918.56;;;8.38;100.00
71716;BME280;59568;52.128;5.434;2023-02-17T03:29:26;101920.63;;;8.36;100.00
71716;BME280;59568;52.128;5.434;2023-02-17T03:32:19;101911.53;;;8.39;100.00
71716;BME280;59568;52.128;5.434;2023-02-17T03:34:53;101909.53;;;8.41;100.00
71716;BME280;59568;52.128;5.434;2023-02-17T03:37:22;101903.47;;;8.40;100.00
71716;BME280;59568;52.128;5.434;2023-02-17T03:39:49;101904.06;;;8.43;100.00
71716;BME280;59568;52.128;5.434;2023-02-17T03:42:15;101899.66;;;8.43;100.00
71716;BME280;59568;52.128;5.434;2023-02-17T03:44:42;101891.56;;;8.45;100.00
71716;BME280;59568;52.128;5.434;2023-02-17T03:47:08;101886.38;;;8.45;100.00
71716;BME280;59568;52.128;5.434;2023-02-17T03:49:35;101899.94;;;8.47;100.00
71716;BME280;59568;52.128;5.434;2023-02-17T03:52:04;101897.88;;;8.49;100.00
71716;BME280;59568;52.128;5.434;2023-02-17T03:54:31;101890.06;;;8.49;100.00
71716;BME280;59568;52.128;5.434;2023-02-17T03:56:57;101877.56;;;8.51;100.00
71716;BME280;59568;52.128;5.434;2023-02-17T03:59:24;101895.56;;;8.52;100.00
71716;BME280;59568;52.128;5.434;2023-02-17T04:02:02;101887.50;;;8.54;100.00
71716;BME280;59568;52.128;5.434;2023-02-17T04:04:29;101889.88;;;8.55;100.00
71716;BME280;59568;52.128;5.434;2023-02-17T04:06:55;101873.19;;;8.56;100.00
71716;BME280;59568;52.128;5.434;2023-02-17T04:09:22;101863.56;;;8.57;100.00
71716;BME280;59568;52.128;5.434;2023-02-17T04:11:49;101880.78;;;8.58;100.00
71716;BME280;59568;52.128;5.434;2023-02-17T04:14:15;101878.72;;;8.60;100.00
71716;BME280;59568;52.128;5.434;2023-02-17T04:16:44;101890.44;;;8.63;100.00
71716;BME280;59568;52.128;5.434;2023-02-17T04:19:11;101879.00;;;8.64;100.00
71716;BME280;59568;52.128;5.434;2023-02-17T04:21:37;101880.81;;;8.63;100.00
71716;BME280;59568;52.128;5.434;2023-02-17T04:24:05;101883.97;;;8.65;100.00
71716;BME280;59568;52.128;5.434;2023-02-17T04:26:46;101881.91;;;8.67;100.00
71716;BME280;59568;52.128;5.434;2023-02-17T04:29:12;101886.09;;;8.68;100.00
71716;BME280;59568;52.128;5.434;2023-02-17T04:31:38;101886.09;;;8.68;100.00
71716;BME280;59568;52.128;5.434;2023-02-17T04:34:05;101887.66;;;8.69;100.00
71716;BME280;59568;52.128;5.434;2023-02-17T04:36:46;101870.44;;;8.68;100.00
71716;BME280;59568;52.128;5.434;2023-02-17T04:39:12;101878.03;;;8.70;100.00
71716;BME280;59568;52.128;5.434;2023-02-17T04:41:39;101872.03;;;8.69;100.00
71716;BME280;59568;52.128;5.434;2023-02-17T04:44:06;101858.75;;;8.71;100.00
71716;BME280;59568;52.128;5.434;2023-02-17T04:46:32;101859.53;;;8.71;100.00
71716;BME280;59568;52.128;5.434;2023-02-17T04:48:59;101865.31;;;8.73;100.00
71716;BME280;59568;52.128;5.434;2023-02-17T04:51:26;101870.50;;;8.73;100.00
71716;BME280;59568;52.128;5.434;2023-02-17T04:53:52;101862.94;;;8.72;100.00
71716;BME280;59568;52.128;5.434;2023-02-17T04:56:22;101857.47;;;8.73;100.00
71716;BME280;59568;52.128;5.434;2023-02-17T04:58:51;101859.81;;;8.75;100.00
71716;BME280;59568;52.128;5.434;2023-02-17T05:01:18;101861.66;;;8.74;100.00
71716;BME280;59568;52.128;5.434;2023-02-17T05:03:44;101856.44;;;8.74;100.00
71716;BME280;59568;52.128;5.434;2023-02-17T05:06:14;101867.91;;;8.73;100.00
71716;BME280;59568;52.128;5.434;2023-02-17T05:08:41;101871.81;;;8.76;100.00
71716;BME280;59568;52.128;5.434;2023-02-17T05:11:07;101881.72;;;8.74;100.00
71716;BME280;59568;52.128;5.434;2023-02-17T05:13:34;101872.06;;;8.74;100.00
71716;BME280;59568;52.128;5.434;2023-02-17T05:16:01;101876.50;;;8.74;100.00
71716;BME280;59568;52.128;5.434;2023-02-17T05:18:30;101880.66;;;8.75;100.00
71716;BME280;59568;52.128;5.434;2023-02-17T05:20:57;101885.63;;;8.76;100.00
71716;BME280;59568;52.128;5.434;2023-02-17T05:23:23;101882.25;;;8.76;100.00
71716;BME280;59568;52.128;5.434;2023-02-17T05:25:50;101890.31;;;8.74;100.00
71716;BME280;59568;52.128;5.434;2023-02-17T05:28:17;101885.63;;;8.76;100.00
71716;BME280;59568;52.128;5.434;2023-02-17T05:30:43;101865.84;;;8.75;100.00
71716;BME280;59568;52.128;5.434;2023-02-17T05:33:10;101870.00;;;8.76;100.00
71716;BME280;59568;52.128;5.434;2023-02-17T05:35:36;101880.97;;;8.78;100.00
71716;BME280;59568;52.128;5.434;2023-02-17T05:38:02;101877.59;;;8.78;100.00
71716;BME280;59568;52.128;5.434;2023-02-17T05:40:29;101873.94;;;8.79;100.00
71716;BME280;59568;52.128;5.434;2023-02-17T05:42:55;101871.59;;;8.77;100.00
71716;BME280;59568;52.128;5.434;2023-02-17T05:45:22;101855.69;;;8.79;100.00
71716;BME280;59568;52.128;5.434;2023-02-17T05:47:48;101859.34;;;8.78;100.00
71716;BME280;59568;52.128;5.434;2023-02-17T05:50:15;101867.94;;;8.78;100.00
71716;BME280;59568;52.128;5.434;2023-02-17T05:52:45;101868.97;;;8.77;100.00
71716;BME280;59568;52.128;5.434;2023-02-17T05:55:12;101851.75;;;8.76;100.00
71716;BME280;59568;52.128;5.434;2023-02-17T05:57:39;101846.53;;;8.76;100.00
71716;BME280;59568;52.128;5.434;2023-02-17T06:00:25;101841.34;;;8.76;100.00
71716;BME280;59568;52.128;5.434;2023-02-17T06:03:12;101846.53;;;8.76;100.00
71716;BME280;59568;52.128;5.434;2023-02-17T06:05:39;101845.00;;;8.75;100.00
71716;BME280;59568;52.128;5.434;2023-02-17T06:08:06;101848.63;;;8.74;100.00
71716;BME280;59568;52.128;5.434;2023-02-17T06:10:33;101859.03;;;8.74;100.00
71716;BME280;59568;52.128;5.434;2023-02-17T06:12:59;101854.38;;;8.76;100.00
71716;BME280;59568;52.128;5.434;2023-02-17T06:15:25;101851.75;;;8.76;100.00
71716;BME280;59568;52.128;5.434;2023-02-17T06:17:52;101851.75;;;8.76;100.00
71716;BME280;59568;52.128;5.434;2023-02-17T06:20:24;101848.66;;;8.79;100.00
71716;BME280;59568;52.128;5.434;2023-02-17T06:22:50;101846.31;;;8.78;100.00
71716;BME280;59568;52.128;5.434;2023-02-17T06:25:17;101845.25;;;8.79;100.00
71716;BME280;59568;52.128;5.434;2023-02-17T06:27:43;101838.78;;;8.82;100.00
71716;BME280;59568;52.128;5.434;2023-02-17T06:30:10;101838.78;;;8.82;100.00
71716;BME280;59568;52.128;5.434;2023-02-17T06:32:52;101835.13;;;8.83;100.00
71716;BME280;59568;52.128;5.434;2023-02-17T06:35:19;101841.94;;;8.84;100.00
71716;BME280;59568;52.128;5.434;2023-02-17T06:37:45;101829.69;;;8.84;100.00
71716;BME280;59568;52.128;5.434;2023-02-17T06:40:12;101816.41;;;8.86;100.00
71716;BME280;59568;52.128;5.434;2023-02-17T06:42:59;101816.41;;;8.86;100.00
71716;BME280;59568;52.128;5.434;2023-02-17T06:45:25;101807.00;;;8.85;100.00
71716;BME280;59568;52.128;5.434;2023-02-17T06:47:52;101810.69;;;8.89;100.00
71716;BME280;59568;52.128;5.434;2023-02-17T06:50:18;101798.69;;;8.88;100.00
71716;BME280;59568;52.128;5.434;2023-02-17T06:52:45;101808.84;;;8.89;100.00
71716;BME280;59568;52.128;5.434;2023-02-17T06:55:11;101811.22;;;8.91;100.00
71716;BME280;59568;52.128;5.434;2023-02-17T06:57:38;101815.41;;;8.92;100.00
71716;BME280;59568;52.128;5.434;2023-02-17T07:00:05;101811.75;;;8.93;100.00
71716;BME280;59568;52.128;5.434;2023-02-17T07:02:32;101810.72;;;8.94;100.00
71716;BME280;59568;52.128;5.434;2023-02-17T07:04:58;101813.09;;;8.95;100.00
71716;BME280;59568;52.128;5.434;2023-02-17T07:07:25;101820.63;;;8.97;100.00
71716;BME280;59568;52.128;5.434;2023-02-17T07:09:51;101802.94;;;8.99;100.00
71716;BME280;59568;52.128;5.434;2023-02-17T07:12:18;101802.16;;;8.98;100.00
71716;BME280;59568;52.128;5.434;2023-02-17T07:14:44;101807.91;;;9.00;100.00
71716;BME280;59568;52.128;5.434;2023-02-17T07:17:11;101814.41;;;9.03;100.00
71716;BME280;59568;52.128;5.434;2023-02-17T07:19:37;101810.25;;;9.02;100.00
71716;BME280;59568;52.128;5.434;2023-02-17T07:22:04;101824.06;;;9.03;100.00
71716;BME280;59568;52.128;5.434;2023-02-17T07:24:32;101832.44;;;9.05;100.00
71716;BME280;59568;52.128;5.434;2023-02-17T07:27:04;101834.78;;;9.06;100.00
71716;BME280;59568;52.128;5.434;2023-02-17T07:29:31;101834.78;;;9.06;100.00
71716;BME280;59568;52.128;5.434;2023-02-17T07:31:57;101828.28;;;9.09;100.00
71716;BME280;59568;52.128;5.434;2023-02-17T07:34:24;101823.84;;;9.09;100.00
71716;BME280;59568;52.128;5.434;2023-02-17T07:36:50;101830.13;;;9.13;100.00
71716;BME280;59568;52.128;5.434;2023-02-17T07:39:18;101806.41;;;9.15;100.00
71716;BME280;59568;52.128;5.434;2023-02-17T07:41:45;101815.56;;;9.17;100.00
71716;BME280;59568;52.128;5.434;2023-02-17T07:44:12;101815.84;;;9.21;100.00
71716;BME280;59568;52.128;5.434;2023-02-17T07:46:38;101818.22;;;9.23;100.00
71716;BME280;59568;52.128;5.434;2023-02-17T07:49:05;101832.31;;;9.27;100.00
71716;BME280;59568;52.128;5.434;2023-02-17T07:51:32;101825.81;;;9.29;100.00
71716;BME280;59568;52.128;5.434;2023-02-17T07:53:59;101808.59;;;9.33;100.00
71716;BME280;59568;52.128;5.434;2023-02-17T07:56:26;101810.97;;;9.35;100.00
71716;BME280;59568;52.128;5.434;2023-02-17T07:58:55;101822.47;;;9.39;100.00
71716;BME280;59568;52.128;5.434;2023-02-17T08:01:23;101820.41;;;9.41;100.00
71716;BME280;59568;52.128;5.434;2023-02-17T08:03:50;101826.16;;;9.43;100.00
71716;BME280;59568;52.128;5.434;2023-02-17T08:06:19;101806.34;;;9.47;100.00
71716;BME280;59568;52.128;5.434;2023-02-17T08:08:47;101811.59;;;9.52;100.00
71716;BME280;59568;52.128;5.434;2023-02-17T08:11:33;101823.34;;;9.55;100.00
71716;BME280;59568;52.128;5.434;2023-02-17T08:14:23;101828.06;;;9.58;100.00
71716;BME280;59568;52.128;5.434;2023-02-17T08:16:49;101834.59;;;9.60;100.00
71716;BME280;59568;52.128;5.434;2023-02-17T08:19:16;101836.16;;;9.62;100.00
71716;BME280;59568;52.128;5.434;2023-02-17T08:21:43;101839.28;;;9.64;100.00
71716;BME280;59568;52.128;5.434;2023-02-17T08:24:10;101853.91;;;9.65;100.00
71716;BME280;59568;52.128;5.434;2023-02-17T08:26:38;101841.41;;;9.67;100.00
71716;BME280;59568;52.128;5.434;2023-02-17T08:29:05;101837.25;;;9.71;100.00
71716;BME280;59568;52.128;5.434;2023-02-17T08:31:33;101838.84;;;9.72;100.00
71716;BME280;59568;52.128;5.434;2023-02-17T08:34:06;101843.78;;;9.73;100.00
71716;BME280;59568;52.128;5.434;2023-02-17T08:36:34;101855.28;;;9.77;100.00
71716;BME280;59568;52.128;5.434;2023-02-17T08:39:22;101848.78;;;9.80;100.00
71716;BME280;59568;52.128;5.434;2023-02-17T08:41:49;101847.47;;;9.83;100.00
71716;BME280;59568;52.128;5.434;2023-02-17T08:44:17;101856.38;;;9.87;100.00
71716;BME280;59568;52.128;5.434;2023-02-17T08:46:45;101869.19;;;9.88;100.00
71716;BME280;59568;52.128;5.434;2023-02-17T08:49:14;101864.47;;;9.90;100.00
71716;BME280;59568;52.128;5.434;2023-02-17T08:51:42;101866.28;;;9.90;100.00
71716;BME280;59568;52.128;5.434;2023-02-17T08:54:09;101887.97;;;9.90;100.00
71716;BME280;59568;52.128;5.434;2023-02-17T08:56:37;101891.66;;;9.94;100.00
71716;BME280;59568;52.128;5.434;2023-02-17T08:59:05;101881.22;;;9.94;100.00
71716;BME280;59568;52.128;5.434;2023-02-17T09:01:33;101879.13;;;9.96;100.00
71716;BME280;59568;52.128;5.434;2023-02-17T09:04:04;101879.91;;;9.97;100.00
71716;BME280;59568;52.128;5.434;2023-02-17T09:06:37;101890.59;;;9.95;100.00
71716;BME280;59568;52.128;5.434;2023-02-17T09:09:06;101881.75;;;9.96;100.00
71716;BME280;59568;52.128;5.434;2023-02-17T09:11:34;101882.56;;;10.02;100.00
71716;BME280;59568;52.128;5.434;2023-02-17T09:14:01;101888.56;;;10.03;100.00
71716;BME280;59568;52.128;5.434;2023-02-17T09:16:28;101888.03;;;10.06;99.97
71716;BME280;59568;52.128;5.434;2023-02-17T09:18:54;101897.97;;;10.09;99.85
71716;BME280;59568;52.128;5.434;2023-02-17T09:21:21;101902.19;;;10.15;99.67
71716;BME280;59568;52.128;5.434;2023-02-17T09:23:48;101900.09;;;10.17;99.80
71716;BME280;59568;52.128;5.434;2023-02-17T09:26:16;101896.97;;;10.20;99.39
71716;BME280;59568;52.128;5.434;2023-02-17T09:28:43;101893.84;;;10.23;99.40
71716;BME280;59568;52.128;5.434;2023-02-17T09:31:16;101883.41;;;10.23;98.96
71716;BME280;59568;52.128;5.434;2023-02-17T09:33:44;101889.41;;;10.24;98.62
71716;BME280;59568;52.128;5.434;2023-02-17T09:36:13;101881.31;;;10.25;98.85
71716;BME280;59568;52.128;5.434;2023-02-17T09:38:40;101862.00;;;10.26;98.67
71716;BME280;59568;52.128;5.434;2023-02-17T09:41:26;101870.91;;;10.30;98.29
71716;BME280;59568;52.128;5.434;2023-02-17T09:43:54;101877.69;;;10.31;98.21
71716;BME280;59568;52.128;5.434;2023-02-17T09:46:29;101884.50;;;10.32;98.09
71716;BME280;59568;52.128;5.434;2023-02-17T09:49:34;101873.78;;;10.34;97.96
71716;BME280;59568;52.128;5.434;2023-02-17T09:52:13;101860.72;;;10.44;98.13
71716;BME280;59568;52.128;5.434;2023-02-17T09:54:55;101866.00;;;10.54;97.87
71716;BME280;59568;52.128;5.434;2023-02-17T09:57:27;101864.19;;;10.65;97.73
71716;BME280;59568;52.128;5.434;2023-02-17T09:59:58;101869.41;;;10.70;97.36
71716;BME280;59568;52.128;5.434;2023-02-17T10:02:35;101861.56;;;10.75;96.65
71716;BME280;59568;52.128;5.434;2023-02-17T10:05:07;101880.13;;;10.74;96.20
71716;BME280;59568;52.128;5.434;2023-02-17T10:07:40;101868.09;;;10.73;95.68
71716;BME280;59568;52.128;5.434;2023-02-17T10:10:17;101873.06;;;10.74;95.81
71716;BME280;59568;52.128;5.434;2023-02-17T10:12:49;101884.06;;;10.82;95.75
71716;BME280;59568;52.128;5.434;2023-02-17T10:15:29;101873.09;;;10.85;95.61
71716;BME280;59568;52.128;5.434;2023-02-17T10:18:07;101889.28;;;10.82;95.12
71716;BME280;59568;52.128;5.434;2023-02-17T10:23:27;101907.56;;;10.76;94.98
71716;BME280;59568;52.128;5.434;2023-02-17T10:31:45;101909.41;;;10.81;95.21
71716;BME280;59568;52.128;5.434;2023-02-17T10:34:35;101919.59;;;10.77;94.78
71716;BME280;59568;52.128;5.434;2023-02-17T10:37:08;101904.97;;;10.71;94.83
71716;BME280;59568;52.128;5.434;2023-02-17T10:39:47;101896.59;;;10.69;94.98
71716;BME280;59568;52.128;5.434;2023-02-17T10:42:21;101872.53;;;10.67;95.07
71716;BME280;59568;52.128;5.434;2023-02-17T10:44:51;101879.84;;;10.65;95.07
71716;BME280;59568;52.128;5.434;2023-02-17T10:47:19;101881.41;;;10.66;95.10
71716;BME280;59568;52.128;5.434;2023-02-17T10:49:50;101895.53;;;10.65;95.12
71716;BME280;59568;52.128;5.434;2023-02-17T10:52:20;101897.63;;;10.63;95.01
71716;BME280;59568;52.128;5.434;2023-02-17T10:55:10;101922.19;;;10.62;95.05
71716;BME280;59568;52.128;5.434;2023-02-17T10:57:53;101911.19;;;10.60;95.20
71716;BME280;59568;52.128;5.434;2023-02-17T11:00:20;101909.66;;;10.64;95.53
71716;BME280;59568;52.128;5.434;2023-02-17T11:02:49;101922.72;;;10.64;95.24
71716;BME280;59568;52.128;5.434;2023-02-17T11:05:32;101920.09;;;10.64;95.30
71716;BME280;59568;52.128;5.434;2023-02-17T11:11:05;101920.91;;;10.80;95.47
71716;BME280;59568;52.128;5.434;2023-02-17T11:13:39;101919.09;;;10.86;95.19
71716;BME280;59568;52.128;5.434;2023-02-17T11:16:21;101913.88;;;10.91;95.17
71716;BME280;59568;52.128;5.434;2023-02-17T11:18:50;101918.31;;;10.90;94.72
71716;BME280;59568;52.128;5.434;2023-02-17T11:21:17;101944.72;;;10.84;94.64
71716;BME280;59568;52.128;5.434;2023-02-17T11:23:51;101947.06;;;10.80;94.71
71716;BME280;59568;52.128;5.434;2023-02-17T11:26:29;101938.16;;;10.76;94.59
71716;BME280;59568;52.128;5.434;2023-02-17T11:29:15;101934.75;;;10.70;94.62
71716;BME280;59568;52.128;5.434;2023-02-17T11:34:27;101952.28;;;10.65;94.50
71716;BME280;59568;52.128;5.434;2023-02-17T11:39:41;101954.59;;;10.61;94.78
71716;BME280;59568;52.128;5.434;2023-02-17T11:42:25;101951.75;;;10.63;94.92
71716;BME280;59568;52.128;5.434;2023-02-17T11:44:53;101944.69;;;10.63;94.74
71716;BME280;59568;52.128;5.434;2023-02-17T11:50:21;101949.88;;;10.58;94.52
71716;BME280;59568;52.128;5.434;2023-02-17T11:53:22;101946.75;;;10.56;94.56
71716;BME280;59568;52.128;5.434;2023-02-17T11:56:01;101957.19;;;10.56;94.86
71716;BME280;59568;52.128;5.434;2023-02-17T12:04:58;101966.09;;;10.55;94.87
71716;BME280;59568;52.128;5.434;2023-02-17T12:11:14;101970.25;;;10.51;94.44
71716;BME280;59568;52.128;5.434;2023-02-17T12:16:35;101982.25;;;10.42;94.71
71716;BME280;59568;52.128;5.434;2023-02-17T12:22:15;101989.03;;;10.37;94.77
71716;BME280;59568;52.128;5.434;2023-02-17T12:36:06;101996.84;;;10.37;94.89
71716;BME280;59568;52.128;5.434;2023-02-17T12:38:38;102024.03;;;10.36;94.59
71716;BME280;59568;52.128;5.434;2023-02-17T12:41:34;102026.13;;;10.34;94.61
71716;BME280;59568;52.128;5.434;2023-02-17T12:44:21;102018.81;;;10.36;94.96
71716;BME280;59568;52.128;5.434;2023-02-17T12:46:51;102027.19;;;10.38;95.09
71716;BME280;59568;52.128;5.434;2023-02-17T12:50:01;102020.38;;;10.37;95.22
71716;BME280;59568;52.128;5.434;2023-02-17T12:52:48;102028.47;;;10.36;95.58
71716;BME280;59568;52.128;5.434;2023-02-17T12:55:21;102036.03;;;10.37;95.75
71716;BME280;59568;52.128;5.434;2023-02-17T13:00:27;102041.25;;;10.32;96.47
71716;BME280;59568;52.128;5.434;2023-02-17T13:02:57;102043.56;;;10.29;96.71
71716;BME280;59568;52.128;5.434;2023-02-17T13:05:29;102035.22;;;10.32;96.88
71716;BME280;59568;52.128;5.434;2023-02-17T13:08:10;102032.13;;;10.35;97.46
71716;BME280;59568;52.128;5.434;2023-02-17T13:10:40;102027.19;;;10.44;97.74
71716;BME280;59568;52.128;5.434;2023-02-17T13:13:12;102027.75;;;10.51;97.72
71716;BME280;59568;52.128;5.434;2023-02-17T13:15:44;102014.97;;;10.54;97.68
71716;BME280;59568;52.128;5.434;2023-02-17T13:18:28;102031.19;;;10.62;97.36
71716;BME280;59568;52.128;5.434;2023-02-17T13:23:45;102020.53;;;10.78;96.81
71716;BME280;59568;52.128;5.434;2023-02-17T13:26:25;102047.47;;;10.84;96.19
71716;BME280;59568;52.128;5.434;2023-02-17T13:31:45;102020.03;;;10.92;95.27
71716;BME280;59568;52.128;5.434;2023-02-17T13:34:23;102013.25;;;10.91;94.53
71716;BME280;59568;52.128;5.434;2023-02-17T13:36:50;102015.34;;;10.89;94.38
71716;BME280;59568;52.128;5.434;2023-02-17T13:41:57;102029.72;;;10.91;93.88
71716;BME280;59568;52.128;5.434;2023-02-17T13:44:29;102015.88;;;10.91;94.08
71716;BME280;59568;52.128;5.434;2023-02-17T13:47:18;102002.53;;;10.97;94.00
71716;BME280;59568;52.128;5.434;2023-02-17T13:49:53;102014.28;;;11.00;93.58
71716;BME280;59568;52.128;5.434;2023-02-17T13:52:26;102010.91;;;10.99;93.34
71716;BME280;59568;52.128;5.434;2023-02-17T13:54:55;102010.91;;;10.99;93.24
71716;BME280;59568;52.128;5.434;2023-02-17T13:57:27;102005.94;;;11.03;93.07
71716;BME280;59568;52.128;5.434;2023-02-17T14:00:21;102006.22;;;11.07;92.91
71716;BME280;59568;52.128;5.434;2023-02-17T14:02:54;102014.84;;;11.07;92.61
71716;BME280;59568;52.128;5.434;2023-02-17T14:08:06;102010.13;;;11.04;92.71
71716;BME280;59568;52.128;5.434;2023-02-17T14:10:33;102019.81;;;11.04;92.25
71716;BME280;59568;52.128;5.434;2023-02-17T14:13:01;102013.78;;;11.03;92.19
71716;BME280;59568;52.128;5.434;2023-02-17T14:15:28;102013.53;;;11.05;92.06
71716;BME280;59568;52.128;5.434;2023-02-17T14:17:55;102022.69;;;11.07;92.16
71716;BME280;59568;52.128;5.434;2023-02-17T14:20:33;102020.59;;;11.14;92.29
71716;BME280;59568;52.128;5.434;2023-02-17T14:23:03;102020.59;;;11.25;92.21
71716;BME280;59568;52.128;5.434;2023-02-17T14:25:33;102016.97;;;11.31;91.94
71716;BME280;59568;52.128;5.434;2023-02-17T14:28:00;102023.00;;;11.42;91.73
71716;BME280;59568;52.128;5.434;2023-02-17T14:30:35;102022.47;;;11.50;91.45
71716;BME280;59568;52.128;5.434;2023-02-17T14:33:18;102025.59;;;11.52;90.60